sensor_id;sensor_type;location;lat;lon;timestamp;pressure;altitude;pressure_sealevel;temperature;humidity
37020;BME280;22932;52.442;16.896;2022-09-09T00:01:14;100021.19;;;16.76;83.05
37020;BME280;22932;52.442;16.896;2022-09-09T00:03:49;100019.92;;;16.78;83.30
37020;BME280;22932;52.442;16.896;2022-09-09T00:06:23;100014.85;;;16.79;83.21
37020;BME280;22932;52.442;16.896;2022-09-09T00:09:01;100012.73;;;16.80;83.18
37020;BME280;22932;52.442;16.896;2022-09-09T00:11:36;100012.83;;;16.81;83.02
37020;BME280;22932;52.442;16.896;2022-09-09T00:14:14;100007.63;;;16.82;83.19
37020;BME280;22932;52.442;16.896;2022-09-09T00:16:49;99999.69;;;16.81;83.41
37020;BME280;22932;52.442;16.896;2022-09-09T00:19:24;99997.85;;;16.81;83.14
37020;BME280;22932;52.442;16.896;2022-09-09T00:22:04;99993.86;;;16.81;83.30
37020;BME280;22932;52.442;16.896;2022-09-09T00:24:40;99997.52;;;16.81;83.14
37020;BME280;22932;52.442;16.896;2022-09-09T00:27:14;100004.89;;;16.80;83.23
37020;BME280;22932;52.442;16.896;2022-09-09T00:29:47;100010.52;;;16.80;83.41
37020;BME280;22932;52.442;16.896;2022-09-09T00:32:20;100012.67;;;16.79;83.30
37020;BME280;22932;52.442;16.896;2022-09-09T00:34:51;100012.08;;;16.78;83.45
37020;BME280;22932;52.442;16.896;2022-09-09T00:37:22;100008.96;;;16.77;83.48
37020;BME280;22932;52.442;16.896;2022-09-09T00:39:55;100010.48;;;16.76;83.72
37020;BME280;22932;52.442;16.896;2022-09-09T00:42:26;100009.90;;;16.75;83.68
37020;BME280;22932;52.442;16.896;2022-09-09T00:45:05;100014.50;;;16.73;83.86
37020;BME280;22932;52.442;16.896;2022-09-09T00:47:43;100013.60;;;16.71;83.88
37020;BME280;22932;52.442;16.896;2022-09-09T00:50:25;100018.02;;;16.69;84.04
37020;BME280;22932;52.442;16.896;2022-09-09T00:53:02;100015.08;;;16.68;83.98
37020;BME280;22932;52.442;16.896;2022-09-09T00:55:40;100011.27;;;16.67;84.15
37020;BME280;22932;52.442;16.896;2022-09-09T00:58:12;100011.09;;;16.65;84.48
37020;BME280;22932;52.442;16.896;2022-09-09T01:00:43;100019.98;;;16.65;84.56
37020;BME280;22932;52.442;16.896;2022-09-09T01:03:25;100024.30;;;16.66;84.64
37020;BME280;22932;52.442;16.896;2022-09-09T01:06:13;100024.92;;;16.65;84.83
37020;BME280;22932;52.442;16.896;2022-09-09T01:09:08;100027.02;;;16.64;84.70
37020;BME280;22932;52.442;16.896;2022-09-09T01:11:46;100027.05;;;16.64;84.75
37020;BME280;22932;52.442;16.896;2022-09-09T01:14:29;100028.93;;;16.63;84.70
37020;BME280;22932;52.442;16.896;2022-09-09T01:17:01;100027.62;;;16.62;84.83
37020;BME280;22932;52.442;16.896;2022-09-09T01:19:40;100026.48;;;16.63;84.79
37020;BME280;22932;52.442;16.896;2022-09-09T01:22:18;100031.23;;;16.62;84.91
37020;BME280;22932;52.442;16.896;2022-09-09T01:25:07;100033.78;;;16.62;84.98
37020;BME280;22932;52.442;16.896;2022-09-09T01:27:40;100034.77;;;16.62;84.90
37020;BME280;22932;52.442;16.896;2022-09-09T01:30:12;100039.39;;;16.61;84.70
37020;BME280;22932;52.442;16.896;2022-09-09T01:32:43;100039.52;;;16.60;84.77
37020;BME280;22932;52.442;16.896;2022-09-09T01:35:15;100046.11;;;16.60;84.81
37020;BME280;22932;52.442;16.896;2022-09-09T01:37:45;100047.46;;;16.59;84.90
37020;BME280;22932;52.442;16.896;2022-09-09T01:40:12;100047.46;;;16.59;84.87
37020;BME280;22932;52.442;16.896;2022-09-09T01:42:40;100047.55;;;16.58;84.85
37020;BME280;22932;52.442;16.896;2022-09-09T01:45:11;100051.09;;;16.58;84.62
37020;BME280;22932;52.442;16.896;2022-09-09T01:47:49;100051.31;;;16.56;84.70
37020;BME280;22932;52.442;16.896;2022-09-09T01:50:18;100053.91;;;16.54;84.52
37020;BME280;22932;52.442;16.896;2022-09-09T01:52:49;100051.11;;;16.52;84.53
37020;BME280;22932;52.442;16.896;2022-09-09T01:55:18;100053.40;;;16.49;84.56
37020;BME280;22932;52.442;16.896;2022-09-09T01:57:56;100051.48;;;16.47;84.53
37020;BME280;22932;52.442;16.896;2022-09-09T02:00:26;100045.23;;;16.44;84.28
37020;BME280;22932;52.442;16.896;2022-09-09T02:03:00;100048.85;;;16.43;84.35
37020;BME280;22932;52.442;16.896;2022-09-09T02:05:36;100052.87;;;16.40;84.41
37020;BME280;22932;52.442;16.896;2022-09-09T02:08:07;100058.54;;;16.37;84.56
37020;BME280;22932;52.442;16.896;2022-09-09T02:10:40;100060.09;;;16.35;84.27
37020;BME280;22932;52.442;16.896;2022-09-09T02:13:12;100059.13;;;16.29;84.24
37020;BME280;22932;52.442;16.896;2022-09-09T02:15:43;100061.16;;;16.25;84.17
37020;BME280;22932;52.442;16.896;2022-09-09T02:18:15;100061.02;;;16.24;84.17
37020;BME280;22932;52.442;16.896;2022-09-09T02:20:46;100060.92;;;16.23;84.35
37020;BME280;22932;52.442;16.896;2022-09-09T02:23:15;100066.11;;;16.21;84.18
37020;BME280;22932;52.442;16.896;2022-09-09T02:25:43;100070.29;;;16.19;84.08
37020;BME280;22932;52.442;16.896;2022-09-09T02:28:13;100077.64;;;16.17;84.06
37020;BME280;22932;52.442;16.896;2022-09-09T02:30:42;100080.98;;;16.13;84.10
37020;BME280;22932;52.442;16.896;2022-09-09T02:33:14;100077.86;;;16.11;84.15
37020;BME280;22932;52.442;16.896;2022-09-09T02:35:42;100075.32;;;16.09;84.11
37020;BME280;22932;52.442;16.896;2022-09-09T02:38:13;100073.02;;;16.07;84.49
37020;BME280;22932;52.442;16.896;2022-09-09T02:40:41;100076.91;;;16.07;84.45
37020;BME280;22932;52.442;16.896;2022-09-09T02:43:09;100078.82;;;16.06;84.34
37020;BME280;22932;52.442;16.896;2022-09-09T02:45:41;100074.03;;;16.05;84.57
37020;BME280;22932;52.442;16.896;2022-09-09T02:48:13;100073.57;;;16.02;84.53
37020;BME280;22932;52.442;16.896;2022-09-09T02:50:48;100078.95;;;15.98;84.32
37020;BME280;22932;52.442;16.896;2022-09-09T02:53:23;100081.09;;;15.96;84.52
37020;BME280;22932;52.442;16.896;2022-09-09T02:55:56;100085.63;;;15.94;84.43
37020;BME280;22932;52.442;16.896;2022-09-09T02:58:26;100085.66;;;15.96;84.63
37020;BME280;22932;52.442;16.896;2022-09-09T03:00:54;100087.38;;;15.96;84.86
37020;BME280;22932;52.442;16.896;2022-09-09T03:03:24;100090.42;;;15.95;84.70
37020;BME280;22932;52.442;16.896;2022-09-09T03:05:51;100091.48;;;15.95;84.86
37020;BME280;22932;52.442;16.896;2022-09-09T03:08:18;100095.34;;;15.96;85.01
37020;BME280;22932;52.442;16.896;2022-09-09T03:10:45;100097.23;;;15.96;85.05
37020;BME280;22932;52.442;16.896;2022-09-09T03:13:12;100097.35;;;15.96;85.06
37020;BME280;22932;52.442;16.896;2022-09-09T03:15:49;100095.89;;;15.96;85.11
37020;BME280;22932;52.442;16.896;2022-09-09T03:18:16;100095.67;;;15.97;85.15
37020;BME280;22932;52.442;16.896;2022-09-09T03:20:49;100098.88;;;15.97;85.26
37020;BME280;22932;52.442;16.896;2022-09-09T03:23:17;100097.64;;;15.96;85.14
37020;BME280;22932;52.442;16.896;2022-09-09T03:25:48;100095.54;;;15.95;85.22
37020;BME280;22932;52.442;16.896;2022-09-09T03:28:15;100094.38;;;15.94;85.25
37020;BME280;22932;52.442;16.896;2022-09-09T03:30:47;100096.92;;;15.94;85.34
37020;BME280;22932;52.442;16.896;2022-09-09T03:33:29;100098.94;;;15.95;85.41
37020;BME280;22932;52.442;16.896;2022-09-09T03:35:59;100106.95;;;15.97;85.41
37020;BME280;22932;52.442;16.896;2022-09-09T03:38:36;100111.23;;;15.96;85.43
37020;BME280;22932;52.442;16.896;2022-09-09T03:41:19;100106.73;;;15.96;85.57
37020;BME280;22932;52.442;16.896;2022-09-09T03:43:46;100111.88;;;15.95;85.51
37020;BME280;22932;52.442;16.896;2022-09-09T03:46:13;100110.36;;;15.92;85.30
37020;BME280;22932;52.442;16.896;2022-09-09T03:48:49;100113.50;;;15.91;85.40
37020;BME280;22932;52.442;16.896;2022-09-09T03:51:21;100114.34;;;15.90;85.52
37020;BME280;22932;52.442;16.896;2022-09-09T03:53:56;100116.31;;;15.88;85.47
37020;BME280;22932;52.442;16.896;2022-09-09T03:56:25;100119.59;;;15.88;85.44
37020;BME280;22932;52.442;16.896;2022-09-09T03:58:55;100123.23;;;15.88;85.53
37020;BME280;22932;52.442;16.896;2022-09-09T04:01:23;100126.52;;;15.87;85.46
37020;BME280;22932;52.442;16.896;2022-09-09T04:03:51;100123.52;;;15.86;85.65
37020;BME280;22932;52.442;16.896;2022-09-09T04:06:20;100124.88;;;15.87;85.59
37020;BME280;22932;52.442;16.896;2022-09-09T04:08:47;100127.51;;;15.86;85.63
37020;BME280;22932;52.442;16.896;2022-09-09T04:11:15;100124.98;;;15.85;85.62
37020;BME280;22932;52.442;16.896;2022-09-09T04:13:53;100129.10;;;15.86;85.72
37020;BME280;22932;52.442;16.896;2022-09-09T04:16:21;100131.63;;;15.86;85.44
37020;BME280;22932;52.442;16.896;2022-09-09T04:18:49;100136.15;;;15.87;85.54
37020;BME280;22932;52.442;16.896;2022-09-09T04:21:17;100137.64;;;15.88;85.65
37020;BME280;22932;52.442;16.896;2022-09-09T04:23:44;100137.55;;;15.90;85.83
37020;BME280;22932;52.442;16.896;2022-09-09T04:26:11;100137.85;;;15.90;85.44
37020;BME280;22932;52.442;16.896;2022-09-09T04:28:38;100142.06;;;15.89;85.44
37020;BME280;22932;52.442;16.896;2022-09-09T04:31:08;100142.73;;;15.87;85.48
37020;BME280;22932;52.442;16.896;2022-09-09T04:33:36;100141.43;;;15.86;85.44
37020;BME280;22932;52.442;16.896;2022-09-09T04:36:03;100143.90;;;15.84;85.26
37020;BME280;22932;52.442;16.896;2022-09-09T04:38:31;100142.30;;;15.82;85.24
37020;BME280;22932;52.442;16.896;2022-09-09T04:40:58;100142.23;;;15.79;85.15
37020;BME280;22932;52.442;16.896;2022-09-09T04:43:26;100141.84;;;15.76;85.21
37020;BME280;22932;52.442;16.896;2022-09-09T04:46:11;100142.33;;;15.74;85.13
37020;BME280;22932;52.442;16.896;2022-09-09T04:48:39;100144.05;;;15.70;85.14
37020;BME280;22932;52.442;16.896;2022-09-09T04:51:20;100141.77;;;15.65;85.15
37020;BME280;22932;52.442;16.896;2022-09-09T04:53:49;100148.42;;;15.62;85.36
37020;BME280;22932;52.442;16.896;2022-09-09T04:56:18;100153.51;;;15.59;85.22
37020;BME280;22932;52.442;16.896;2022-09-09T04:58:48;100154.35;;;15.56;85.41
37020;BME280;22932;52.442;16.896;2022-09-09T05:01:16;100153.56;;;15.55;85.64
37020;BME280;22932;52.442;16.896;2022-09-09T05:03:54;100159.83;;;15.56;85.68
37020;BME280;22932;52.442;16.896;2022-09-09T05:06:22;100162.68;;;15.54;85.73
37020;BME280;22932;52.442;16.896;2022-09-09T05:08:50;100161.67;;;15.55;86.05
37020;BME280;22932;52.442;16.896;2022-09-09T05:11:19;100161.86;;;15.57;85.99
37020;BME280;22932;52.442;16.896;2022-09-09T05:13:46;100166.63;;;15.57;85.98
37020;BME280;22932;52.442;16.896;2022-09-09T05:16:14;100165.65;;;15.56;85.85
37020;BME280;22932;52.442;16.896;2022-09-09T05:18:42;100168.83;;;15.58;86.44
37020;BME280;22932;52.442;16.896;2022-09-09T05:21:24;100173.19;;;15.61;86.38
37020;BME280;22932;52.442;16.896;2022-09-09T05:23:53;100174.05;;;15.62;86.44
37020;BME280;22932;52.442;16.896;2022-09-09T05:26:22;100176.46;;;15.63;86.24
37020;BME280;22932;52.442;16.896;2022-09-09T05:28:52;100174.75;;;15.63;86.16
37020;BME280;22932;52.442;16.896;2022-09-09T05:31:20;100173.67;;;15.62;85.99
37020;BME280;22932;52.442;16.896;2022-09-09T05:33:48;100171.90;;;15.61;86.13
37020;BME280;22932;52.442;16.896;2022-09-09T05:36:18;100174.77;;;15.62;86.53
37020;BME280;22932;52.442;16.896;2022-09-09T05:38:45;100170.02;;;15.63;86.41
37020;BME280;22932;52.442;16.896;2022-09-09T05:41:13;100174.48;;;15.64;86.42
37020;BME280;22932;52.442;16.896;2022-09-09T05:43:48;100181.11;;;15.65;86.49
37020;BME280;22932;52.442;16.896;2022-09-09T05:46:22;100179.16;;;15.68;86.53
37020;BME280;22932;52.442;16.896;2022-09-09T05:48:58;100182.52;;;15.70;86.42
37020;BME280;22932;52.442;16.896;2022-09-09T05:51:26;100180.41;;;15.71;86.15
37020;BME280;22932;52.442;16.896;2022-09-09T05:53:58;100180.88;;;15.72;86.24
37020;BME280;22932;52.442;16.896;2022-09-09T05:56:30;100185.48;;;15.73;86.14
37020;BME280;22932;52.442;16.896;2022-09-09T05:58:59;100181.55;;;15.72;86.21
37020;BME280;22932;52.442;16.896;2022-09-09T06:01:31;100182.42;;;15.71;86.08
37020;BME280;22932;52.442;16.896;2022-09-09T06:04:07;100183.81;;;15.68;85.86
37020;BME280;22932;52.442;16.896;2022-09-09T06:06:41;100188.61;;;15.69;86.16
37020;BME280;22932;52.442;16.896;2022-09-09T06:09:11;100187.27;;;15.71;86.41
37020;BME280;22932;52.442;16.896;2022-09-09T06:11:45;100189.36;;;15.75;86.48
37020;BME280;22932;52.442;16.896;2022-09-09T06:14:15;100189.91;;;15.78;86.34
37020;BME280;22932;52.442;16.896;2022-09-09T06:16:53;100184.83;;;15.82;86.39
37020;BME280;22932;52.442;16.896;2022-09-09T06:19:23;100187.55;;;15.86;86.48
37020;BME280;22932;52.442;16.896;2022-09-09T06:21:53;100188.69;;;15.90;86.36
37020;BME280;22932;52.442;16.896;2022-09-09T06:24:23;100190.70;;;15.95;86.64
37020;BME280;22932;52.442;16.896;2022-09-09T06:26:58;100190.05;;;16.00;86.66
37020;BME280;22932;52.442;16.896;2022-09-09T06:29:25;100186.81;;;16.06;86.93
37020;BME280;22932;52.442;16.896;2022-09-09T06:31:56;100187.02;;;16.14;86.63
37020;BME280;22932;52.442;16.896;2022-09-09T06:34:36;100189.73;;;16.22;86.69
37020;BME280;22932;52.442;16.896;2022-09-09T06:37:09;100190.30;;;16.28;86.45
37020;BME280;22932;52.442;16.896;2022-09-09T06:39:53;100193.64;;;16.32;85.88
37020;BME280;22932;52.442;16.896;2022-09-09T06:42:33;100194.58;;;16.35;85.58
37020;BME280;22932;52.442;16.896;2022-09-09T06:45:03;100199.36;;;16.35;85.48
37020;BME280;22932;52.442;16.896;2022-09-09T06:47:36;100196.69;;;16.35;85.54
37020;BME280;22932;52.442;16.896;2022-09-09T06:50:19;100199.94;;;16.37;85.52
37020;BME280;22932;52.442;16.896;2022-09-09T06:52:54;100202.92;;;16.37;85.36
37020;BME280;22932;52.442;16.896;2022-09-09T06:55:29;100197.33;;;16.39;85.25
37020;BME280;22932;52.442;16.896;2022-09-09T06:57:59;100197.73;;;16.40;85.20
37020;BME280;22932;52.442;16.896;2022-09-09T07:00:29;100194.19;;;16.41;85.40
37020;BME280;22932;52.442;16.896;2022-09-09T07:03:05;100199.95;;;16.43;85.40
37020;BME280;22932;52.442;16.896;2022-09-09T07:05:32;100200.27;;;16.41;85.09
37020;BME280;22932;52.442;16.896;2022-09-09T07:07:59;100199.73;;;16.44;85.44
37020;BME280;22932;52.442;16.896;2022-09-09T07:10:27;100203.30;;;16.51;85.54
37020;BME280;22932;52.442;16.896;2022-09-09T07:12:54;100197.79;;;16.58;85.60
37020;BME280;22932;52.442;16.896;2022-09-09T07:15:28;100196.00;;;16.62;85.23
37020;BME280;22932;52.442;16.896;2022-09-09T07:17:55;100198.50;;;16.64;84.95
37020;BME280;22932;52.442;16.896;2022-09-09T07:20:22;100198.35;;;16.69;85.12
37020;BME280;22932;52.442;16.896;2022-09-09T07:22:49;100198.59;;;16.78;85.57
37020;BME280;22932;52.442;16.896;2022-09-09T07:25:16;100197.41;;;16.90;85.50
37020;BME280;22932;52.442;16.896;2022-09-09T07:27:44;100198.67;;;17.02;85.46
37020;BME280;22932;52.442;16.896;2022-09-09T07:30:13;100196.93;;;17.17;85.06
37020;BME280;22932;52.442;16.896;2022-09-09T07:32:41;100198.82;;;17.32;84.91
37020;BME280;22932;52.442;16.896;2022-09-09T07:35:08;100195.57;;;17.48;84.90
37020;BME280;22932;52.442;16.896;2022-09-09T07:37:37;100197.85;;;17.80;85.26
37020;BME280;22932;52.442;16.896;2022-09-09T07:40:06;100196.63;;;18.14;84.86
37020;BME280;22932;52.442;16.896;2022-09-09T07:42:33;100197.55;;;18.42;84.42
37020;BME280;22932;52.442;16.896;2022-09-09T07:45:00;100193.78;;;18.69;83.39
37020;BME280;22932;52.442;16.896;2022-09-09T07:47:28;100201.59;;;18.96;83.33
37020;BME280;22932;52.442;16.896;2022-09-09T07:49:55;100205.38;;;19.21;83.07
37020;BME280;22932;52.442;16.896;2022-09-09T07:52:25;100198.54;;;19.35;81.94
37020;BME280;22932;52.442;16.896;2022-09-09T07:54:53;100201.67;;;19.52;81.52
37020;BME280;22932;52.442;16.896;2022-09-09T07:57:37;100200.98;;;19.70;80.94
37020;BME280;22932;52.442;16.896;2022-09-09T08:00:07;100204.49;;;19.98;80.59
37020;BME280;22932;52.442;16.896;2022-09-09T08:02:34;100207.17;;;20.29;80.30
37020;BME280;22932;52.442;16.896;2022-09-09T08:05:02;100205.66;;;20.60;79.96
37020;BME280;22932;52.442;16.896;2022-09-09T08:07:30;100203.05;;;20.89;78.98
37020;BME280;22932;52.442;16.896;2022-09-09T08:09:57;100201.58;;;21.15;78.77
37020;BME280;22932;52.442;16.896;2022-09-09T08:12:25;100207.50;;;21.35;77.84
37020;BME280;22932;52.442;16.896;2022-09-09T08:14:52;100212.34;;;21.46;76.61
37020;BME280;22932;52.442;16.896;2022-09-09T08:17:20;100216.73;;;21.53;75.13
37020;BME280;22932;52.442;16.896;2022-09-09T08:19:47;100215.52;;;21.58;74.23
37020;BME280;22932;52.442;16.896;2022-09-09T08:22:15;100215.66;;;21.58;73.87
37020;BME280;22932;52.442;16.896;2022-09-09T08:24:43;100217.02;;;21.52;73.53
37020;BME280;22932;52.442;16.896;2022-09-09T08:27:17;100220.69;;;21.44;73.19
37020;BME280;22932;52.442;16.896;2022-09-09T08:29:46;100221.83;;;21.35;72.65
37020;BME280;22932;52.442;16.896;2022-09-09T08:32:15;100221.19;;;21.31;72.23
37020;BME280;22932;52.442;16.896;2022-09-09T08:34:43;100220.09;;;21.33;72.27
37020;BME280;22932;52.442;16.896;2022-09-09T08:37:16;100220.65;;;21.40;71.93
37020;BME280;22932;52.442;16.896;2022-09-09T08:39:45;100221.35;;;21.47;71.84
37020;BME280;22932;52.442;16.896;2022-09-09T08:42:34;100221.38;;;21.65;72.15
37020;BME280;22932;52.442;16.896;2022-09-09T08:45:25;100219.95;;;21.89;71.92
37020;BME280;22932;52.442;16.896;2022-09-09T08:50:53;100222.41;;;22.40;71.00
37020;BME280;22932;52.442;16.896;2022-09-09T08:53:29;100224.27;;;22.64;70.50
37020;BME280;22932;52.442;16.896;2022-09-09T08:56:12;100224.31;;;22.84;70.17
37020;BME280;22932;52.442;16.896;2022-09-09T08:58:53;100222.98;;;23.04;69.41
37020;BME280;22932;52.442;16.896;2022-09-09T09:01:33;100221.08;;;23.21;68.85
37020;BME280;22932;52.442;16.896;2022-09-09T09:04:10;100218.50;;;23.28;67.21
37020;BME280;22932;52.442;16.896;2022-09-09T09:06:54;100217.06;;;23.28;66.14
37020;BME280;22932;52.442;16.896;2022-09-09T09:09:57;100219.66;;;23.39;66.51
37020;BME280;22932;52.442;16.896;2022-09-09T09:12:30;100220.45;;;23.55;65.93
37020;BME280;22932;52.442;16.896;2022-09-09T09:14:59;100222.19;;;23.59;64.81
37020;BME280;22932;52.442;16.896;2022-09-09T09:17:35;100222.99;;;23.55;63.87
37020;BME280;22932;52.442;16.896;2022-09-09T09:20:15;100217.55;;;23.57;64.20
37020;BME280;22932;52.442;16.896;2022-09-09T09:22:49;100216.45;;;23.56;63.45
37020;BME280;22932;52.442;16.896;2022-09-09T09:25:19;100214.50;;;23.52;63.17
37020;BME280;22932;52.442;16.896;2022-09-09T09:27:49;100221.51;;;23.51;62.57
37020;BME280;22932;52.442;16.896;2022-09-09T09:30:29;100215.64;;;23.46;62.13
37020;BME280;22932;52.442;16.896;2022-09-09T09:33:02;100220.29;;;23.47;62.46
37020;BME280;22932;52.442;16.896;2022-09-09T09:35:38;100224.28;;;23.54;61.91
37020;BME280;22932;52.442;16.896;2022-09-09T09:38:25;100222.47;;;23.64;61.81
37020;BME280;22932;52.442;16.896;2022-09-09T09:40:56;100217.11;;;23.78;61.98
37020;BME280;22932;52.442;16.896;2022-09-09T09:43:27;100218.91;;;23.93;61.76
37020;BME280;22932;52.442;16.896;2022-09-09T09:45:55;100219.73;;;24.05;61.04
37020;BME280;22932;52.442;16.896;2022-09-09T09:48:25;100220.79;;;24.09;60.14
37020;BME280;22932;52.442;16.896;2022-09-09T09:50:55;100217.06;;;24.10;59.54
37020;BME280;22932;52.442;16.896;2022-09-09T09:53:32;100220.82;;;24.06;59.77
37020;BME280;22932;52.442;16.896;2022-09-09T09:56:01;100215.04;;;24.09;59.59
37020;BME280;22932;52.442;16.896;2022-09-09T09:58:37;100219.63;;;24.15;59.06
37020;BME280;22932;52.442;16.896;2022-09-09T10:01:23;100220.40;;;23.93;58.50
37020;BME280;22932;52.442;16.896;2022-09-09T10:03:52;100217.36;;;23.78;58.30
37020;BME280;22932;52.442;16.896;2022-09-09T10:06:31;100216.27;;;23.78;58.49
37020;BME280;22932;52.442;16.896;2022-09-09T10:18:36;100212.20;;;23.87;57.84
37020;BME280;22932;52.442;16.896;2022-09-09T10:21:15;100225.14;;;23.61;57.70
37020;BME280;22932;52.442;16.896;2022-09-09T10:24:04;100227.20;;;23.39;57.81
37020;BME280;22932;52.442;16.896;2022-09-09T10:26:42;100228.02;;;23.24;57.63
37020;BME280;22932;52.442;16.896;2022-09-09T10:29:24;100232.59;;;23.10;57.63
37020;BME280;22932;52.442;16.896;2022-09-09T10:32:10;100232.16;;;22.98;57.94
37020;BME280;22932;52.442;16.896;2022-09-09T10:34:54;100231.70;;;23.00;58.13
37020;BME280;22932;52.442;16.896;2022-09-09T10:37:40;100236.07;;;23.14;58.14
37020;BME280;22932;52.442;16.896;2022-09-09T10:40:37;100235.38;;;23.27;58.03
37020;BME280;22932;52.442;16.896;2022-09-09T10:43:22;100235.83;;;23.25;57.18
37020;BME280;22932;52.442;16.896;2022-09-09T10:46:01;100241.28;;;23.27;57.09
37020;BME280;22932;52.442;16.896;2022-09-09T10:48:41;100246.60;;;23.16;57.17
37020;BME280;22932;52.442;16.896;2022-09-09T10:51:24;100249.23;;;23.02;57.03
37020;BME280;22932;52.442;16.896;2022-09-09T10:54:12;100247.32;;;22.91;57.64
37020;BME280;22932;52.442;16.896;2022-09-09T10:57:05;100249.93;;;22.87;57.91
37020;BME280;22932;52.442;16.896;2022-09-09T10:59:38;100245.95;;;22.80;57.82
37020;BME280;22932;52.442;16.896;2022-09-09T11:02:15;100246.58;;;22.71;57.74
37020;BME280;22932;52.442;16.896;2022-09-09T11:04:49;100242.73;;;22.58;57.51
37020;BME280;22932;52.442;16.896;2022-09-09T11:07:28;100241.10;;;22.44;57.64
37020;BME280;22932;52.442;16.896;2022-09-09T11:10:12;100239.44;;;22.46;58.15
37020;BME280;22932;52.442;16.896;2022-09-09T11:12:47;100247.80;;;22.71;58.07
37020;BME280;22932;52.442;16.896;2022-09-09T11:15:18;100240.71;;;22.93;58.31
37020;BME280;22932;52.442;16.896;2022-09-09T11:17:50;100243.71;;;22.95;58.17
37020;BME280;22932;52.442;16.896;2022-09-09T11:20:34;100240.58;;;22.89;57.31
37020;BME280;22932;52.442;16.896;2022-09-09T11:23:04;100239.69;;;22.79;57.15
37020;BME280;22932;52.442;16.896;2022-09-09T11:25:36;100238.05;;;22.83;56.54
37020;BME280;22932;52.442;16.896;2022-09-09T11:28:25;100235.52;;;22.95;56.55
37020;BME280;22932;52.442;16.896;2022-09-09T11:31:02;100241.73;;;23.00;55.78
37020;BME280;22932;52.442;16.896;2022-09-09T11:33:55;100237.96;;;22.96;55.01
37020;BME280;22932;52.442;16.896;2022-09-09T11:37:02;100243.72;;;22.90;54.23
37020;BME280;22932;52.442;16.896;2022-09-09T11:40:00;100242.25;;;23.13;54.72
37020;BME280;22932;52.442;16.896;2022-09-09T11:42:34;100243.27;;;23.39;54.38
37020;BME280;22932;52.442;16.896;2022-09-09T11:45:24;100244.30;;;23.57;53.57
37020;BME280;22932;52.442;16.896;2022-09-09T11:47:53;100241.76;;;23.78;53.22
37020;BME280;22932;52.442;16.896;2022-09-09T11:50:56;100237.07;;;23.76;52.93
37020;BME280;22932;52.442;16.896;2022-09-09T11:53:25;100237.65;;;23.65;52.81
37020;BME280;22932;52.442;16.896;2022-09-09T11:56:08;100240.91;;;23.75;52.40
37020;BME280;22932;52.442;16.896;2022-09-09T11:58:42;100227.91;;;23.93;52.58
37020;BME280;22932;52.442;16.896;2022-09-09T12:01:29;100232.33;;;24.11;52.18
37020;BME280;22932;52.442;16.896;2022-09-09T12:04:16;100227.61;;;24.30;51.73
37020;BME280;22932;52.442;16.896;2022-09-09T12:06:46;100225.18;;;24.44;50.87
37020;BME280;22932;52.442;16.896;2022-09-09T12:09:25;100219.86;;;24.56;50.84
37020;BME280;22932;52.442;16.896;2022-09-09T12:12:05;100215.77;;;24.54;50.46
37020;BME280;22932;52.442;16.896;2022-09-09T12:14:54;100217.17;;;24.57;50.36
37020;BME280;22932;52.442;16.896;2022-09-09T12:17:23;100217.36;;;24.53;50.29
37020;BME280;22932;52.442;16.896;2022-09-09T12:20:06;100216.16;;;24.60;50.33
37020;BME280;22932;52.442;16.896;2022-09-09T12:22:47;100214.98;;;24.63;50.16
37020;BME280;22932;52.442;16.896;2022-09-09T12:25:23;100209.09;;;24.60;49.62
37020;BME280;22932;52.442;16.896;2022-09-09T12:28:03;100214.78;;;24.60;49.20
37020;BME280;22932;52.442;16.896;2022-09-09T12:30:37;100206.58;;;24.62;49.40
37020;BME280;22932;52.442;16.896;2022-09-09T12:33:12;100206.31;;;24.71;49.44
37020;BME280;22932;52.442;16.896;2022-09-09T12:35:44;100205.23;;;24.78;48.57
37020;BME280;22932;52.442;16.896;2022-09-09T12:38:15;100202.34;;;24.80;47.99
37020;BME280;22932;52.442;16.896;2022-09-09T12:40:55;100204.27;;;24.66;47.08
37020;BME280;22932;52.442;16.896;2022-09-09T12:43:27;100201.92;;;24.48;47.31
37020;BME280;22932;52.442;16.896;2022-09-09T12:45:57;100195.23;;;24.43;47.77
37020;BME280;22932;52.442;16.896;2022-09-09T12:48:30;100193.59;;;24.52;48.38
37020;BME280;22932;52.442;16.896;2022-09-09T12:51:18;100195.44;;;24.66;48.11
37020;BME280;22932;52.442;16.896;2022-09-09T12:54:01;100192.70;;;24.72;47.51
37020;BME280;22932;52.442;16.896;2022-09-09T12:56:47;100195.57;;;24.71;47.26
37020;BME280;22932;52.442;16.896;2022-09-09T12:59:35;100193.86;;;24.76;47.50
37020;BME280;22932;52.442;16.896;2022-09-09T13:02:10;100195.79;;;24.81;47.28
37020;BME280;22932;52.442;16.896;2022-09-09T13:04:49;100194.10;;;24.77;47.13
37020;BME280;22932;52.442;16.896;2022-09-09T13:07:22;100195.42;;;24.84;47.08
37020;BME280;22932;52.442;16.896;2022-09-09T13:09:51;100192.18;;;24.94;47.05
37020;BME280;22932;52.442;16.896;2022-09-09T13:12:20;100193.59;;;25.06;46.97
37020;BME280;22932;52.442;16.896;2022-09-09T13:14:50;100191.40;;;25.18;46.08
37020;BME280;22932;52.442;16.896;2022-09-09T13:17:21;100192.02;;;25.17;46.02
37020;BME280;22932;52.442;16.896;2022-09-09T13:20:01;100191.59;;;25.11;46.20
37020;BME280;22932;52.442;16.896;2022-09-09T13:22:39;100191.88;;;25.09;45.85
37020;BME280;22932;52.442;16.896;2022-09-09T13:25:19;100193.84;;;24.99;45.66
37020;BME280;22932;52.442;16.896;2022-09-09T13:27:54;100193.41;;;24.99;45.80